Time;durP1;ratioP1;P1;durP2;ratioP2;P2;SDS_P1;SDS_P2;PMS_P1;PMS_P2;Temp;Humidity;BMP_temperature;BMP_pressure;BME280_temperature;BME280_humidity;BME280_pressure;Samples;Min_cycle;Max_cycle;Signal;HPM_P1;HPM_P2
2022/08/13 00:01:42;;;;;;;6.10;2.17;;;22.90;7.60;;;;;;5064589;28;20381;-79
2022/08/13 00:04:11;;;;;;;5.18;1.70;;;23.00;7.80;;;;;;5063169;28;20761;-83
2022/08/13 00:09:06;;;;;;;2.22;1.65;;;22.90;7.80;;;;;;5060547;28;20433;-80
2022/08/13 00:14:16;;;;;;;8.82;1.88;;;22.80;8.00;;;;;;5060134;28;20758;-80
2022/08/13 00:16:42;;;;;;;5.80;1.60;;;22.70;8.10;;;;;;5059073;28;20435;-81
2022/08/13 00:19:08;;;;;;;2.50;1.70;;;22.80;8.20;;;;;;5060677;28;20449;-80
2022/08/13 00:21:34;;;;;;;5.75;1.83;;;22.90;8.10;;;;;;5067861;28;20404;-82
2022/08/13 00:24:00;;;;;;;6.60;2.20;;;22.80;8.30;;;;;;5068071;28;20393;-79
2022/08/13 00:26:27;;;;;;;6.60;2.28;;;22.70;8.30;;;;;;5065644;28;20429;-79
2022/08/13 00:28:54;;;;;;;2.80;1.92;;;22.90;8.30;;;;;;5061638;28;20814;-80
2022/08/13 00:31:21;;;;;;;4.50;1.90;;;22.90;8.30;;;;;;5061372;28;20467;-80
2022/08/13 00:33:47;;;;;;;2.00;1.70;;;22.90;8.20;;;;;;5059813;28;20389;-79
2022/08/13 00:36:13;;;;;;;2.92;2.10;;;22.70;8.50;;;;;;5061776;28;20409;-79
2022/08/13 00:38:44;;;;;;;4.32;2.00;;;22.70;8.50;;;;;;5061681;28;20404;-81
2022/08/13 00:41:13;;;;;;;3.92;1.85;;;22.70;8.50;;;;;;5063312;28;20386;-80
2022/08/13 00:43:39;;;;;;;3.30;1.73;;;22.70;8.70;;;;;;5064750;28;20819;-80
2022/08/13 00:46:05;;;;;;;4.20;1.90;;;22.60;8.80;;;;;;5063252;28;20385;-81
2022/08/13 00:48:43;;;;;;;5.20;1.73;;;22.70;9.00;;;;;;5064993;28;20377;-84
2022/08/13 00:51:10;;;;;;;4.00;2.20;;;22.60;9.00;;;;;;5062507;28;20412;-80
2022/08/13 00:53:40;;;;;;;1.92;1.60;;;22.50;9.40;;;;;;5063339;28;20385;-79
2022/08/13 00:56:08;;;;;;;4.88;2.05;;;22.40;9.30;;;;;;5061153;28;20413;-82
2022/08/13 00:58:35;;;;;;;6.87;2.00;;;22.30;9.80;;;;;;5062527;28;20385;-81
2022/08/13 01:01:02;;;;;;;7.95;2.10;;;22.30;9.80;;;;;;5061266;28;20396;-80
2022/08/13 01:03:30;;;;;;;2.47;2.28;;;22.20;10.10;;;;;;5061679;28;20921;-79
2022/08/13 01:05:58;;;;;;;11.43;8.30;;;22.10;10.30;;;;;;5060253;28;20393;-80
2022/08/13 01:08:24;;;;;;;7.40;5.50;;;22.00;10.50;;;;;;5057434;28;20472;-78
2022/08/13 01:10:50;;;;;;;8.40;4.40;;;22.20;10.20;;;;;;5058318;28;20450;-78
2022/08/13 01:13:18;;;;;;;6.22;3.95;;;22.20;10.10;;;;;;5058694;28;20381;-78
2022/08/13 01:15:45;;;;;;;6.03;3.63;;;22.30;10.10;;;;;;5057756;28;20440;-77
2022/08/13 01:18:15;;;;;;;9.27;5.35;;;22.20;10.20;;;;;;5057423;28;20902;-77
2022/08/13 01:20:47;;;;;;;7.70;3.00;;;22.20;10.40;;;;;;5058372;28;20381;-78
2022/08/13 01:23:14;;;;;;;3.88;3.42;;;22.10;10.50;;;;;;5057710;28;20385;-78
2022/08/13 01:25:41;;;;;;;5.05;3.60;;;22.10;10.80;;;;;;5057164;28;20467;-79
2022/08/13 01:28:08;;;;;;;7.45;4.47;;;22.00;10.80;;;;;;5057129;28;20386;-80
2022/08/13 01:30:34;;;;;;;6.60;2.72;;;21.90;11.20;;;;;;5059004;28;20386;-77
2022/08/13 01:33:02;;;;;;;3.63;3.23;;;22.00;11.00;;;;;;5056615;28;20397;-78
2022/08/13 01:35:28;;;;;;;7.05;2.95;;;22.00;11.10;;;;;;5061267;28;20409;-78
2022/08/13 01:37:57;;;;;;;8.35;4.60;;;21.90;11.30;;;;;;5058112;28;20447;-79
2022/08/13 01:40:23;;;;;;;7.97;3.55;;;22.00;11.40;;;;;;5063360;28;20468;-77
2022/08/13 01:42:50;;;;;;;5.90;2.80;;;21.90;11.70;;;;;;5063200;28;20389;-76
2022/08/13 01:45:16;;;;;;;3.35;2.70;;;21.70;11.90;;;;;;5063592;28;20377;-77
2022/08/13 01:50:31;;;;;;;4.38;2.80;;;21.40;12.40;;;;;;5061938;28;20749;-77
2022/08/13 01:53:11;;;;;;;5.00;2.60;;;21.30;13.00;;;;;;5058362;28;20389;-79
2022/08/13 01:55:40;;;;;;;7.30;2.80;;;21.30;12.90;;;;;;5058930;28;20444;-77
2022/08/13 01:58:13;;;;;;;3.00;2.70;;;21.20;13.00;;;;;;5060881;28;20385;-77
2022/08/13 02:00:44;;;;;;;4.07;2.60;;;21.10;13.20;;;;;;5059276;28;20389;-80
2022/08/13 02:03:11;;;;;;;3.58;2.80;;;21.00;13.80;;;;;;5064797;28;20516;-77
2022/08/13 02:05:38;;;;;;;7.25;2.58;;;20.90;14.00;;;;;;5060038;28;20401;-79
2022/08/13 02:08:09;;;;;;;6.00;2.90;;;20.90;13.90;;;;;;5062375;28;20415;-77
2022/08/13 02:10:36;;;;;;;5.95;2.45;;;20.80;14.10;;;;;;5063592;28;20408;-76
2022/08/13 02:13:04;;;;;;;6.93;3.28;;;20.70;14.70;;;;;;5058896;28;20387;-76
2022/08/13 02:15:30;;;;;;;3.53;2.77;;;20.60;14.80;;;;;;5058010;28;20409;-78
2022/08/13 02:17:56;;;;;;;3.50;2.57;;;20.50;14.90;;;;;;5057594;28;20377;-77
2022/08/13 02:20:22;;;;;;;4.88;2.70;;;20.50;15.10;;;;;;5071476;28;20484;-76
2022/08/13 02:22:49;;;;;;;3.67;2.25;;;20.40;15.10;;;;;;5071063;28;20401;-77
2022/08/13 02:25:16;;;;;;;4.43;3.00;;;20.30;15.30;;;;;;5072235;28;20397;-76
2022/08/13 02:27:43;;;;;;;8.00;2.85;;;20.40;15.40;;;;;;5061947;28;20476;-79
2022/08/13 02:30:11;;;;;;;6.22;2.65;;;20.30;15.50;;;;;;5057335;28;20385;-78
2022/08/13 02:32:38;;;;;;;3.92;2.50;;;20.20;15.90;;;;;;5056667;28;20465;-78
2022/08/13 02:35:04;;;;;;;4.03;2.42;;;20.10;15.90;;;;;;5061259;28;20427;-80
2022/08/13 02:37:32;;;;;;;5.53;2.47;;;20.10;15.90;;;;;;5065485;28;20393;-77
2022/08/13 02:39:59;;;;;;;2.78;2.33;;;20.10;15.90;;;;;;5064302;28;20781;-77
2022/08/13 02:42:32;;;;;;;5.60;2.70;;;20.10;16.00;;;;;;5063687;28;20381;-78
2022/08/13 02:44:59;;;;;;;4.38;2.38;;;20.10;16.20;;;;;;5060211;28;20738;-78
2022/08/13 02:47:28;;;;;;;4.75;2.50;;;20.10;16.20;;;;;;5060389;28;20475;-80
2022/08/13 02:49:54;;;;;;;3.60;2.70;;;20.00;16.40;;;;;;5060957;28;20393;-78
2022/08/13 02:52:21;;;;;;;4.10;2.80;;;19.90;16.60;;;;;;5063215;28;20396;-79
2022/08/13 02:54:49;;;;;;;5.43;2.60;;;19.80;16.80;;;;;;5061820;28;20720;-77
2022/08/13 02:57:15;;;;;;;5.15;2.30;;;19.80;16.90;;;;;;5057670;28;20390;-78
2022/08/13 02:59:44;;;;;;;3.38;2.40;;;19.80;17.50;;;;;;5060128;28;20447;-79
2022/08/13 03:02:10;;;;;;;5.63;3.40;;;19.80;17.20;;;;;;5059115;28;20397;-79
2022/08/13 03:04:42;;;;;;;3.20;2.70;;;20.00;16.90;;;;;;5060783;28;20393;-79
2022/08/13 03:07:08;;;;;;;3.30;2.70;;;20.00;17.00;;;;;;5059730;28;20413;-78
2022/08/13 03:09:34;;;;;;;3.28;2.70;;;20.00;17.10;;;;;;5058466;28;20459;-79
2022/08/13 03:12:03;;;;;;;3.22;2.72;;;20.10;17.30;;;;;;5059163;28;20393;-78
2022/08/13 03:14:32;;;;;;;4.72;3.10;;;20.10;17.10;;;;;;5058644;28;20458;-78
2022/08/13 03:16:57;;;;;;;7.67;3.40;;;20.20;17.00;;;;;;5060269;28;20467;-77
2022/08/13 03:19:24;;;;;;;5.93;3.50;;;20.20;17.20;;;;;;5064243;28;20731;-77
2022/08/13 03:21:50;;;;;;;7.97;3.10;;;20.20;17.30;;;;;;5063382;28;20391;-77
2022/08/13 03:24:17;;;;;;;6.40;3.00;;;20.10;17.50;;;;;;5063552;28;20471;-77
2022/08/13 03:26:44;;;;;;;5.03;2.80;;;20.00;17.80;;;;;;5063972;28;20408;-77
2022/08/13 03:29:10;;;;;;;5.57;3.20;;;19.90;17.90;;;;;;5057956;28;20474;-78
2022/08/13 03:31:37;;;;;;;8.40;3.20;;;19.60;18.40;;;;;;5057130;28;20480;-78
2022/08/13 03:34:03;;;;;;;6.32;3.10;;;19.50;19.10;;;;;;5059693;28;20388;-78
2022/08/13 03:36:33;;;;;;;4.40;3.27;;;19.30;19.60;;;;;;5057526;28;20405;-78
2022/08/13 03:38:59;;;;;;;4.50;3.00;;;19.20;20.30;;;;;;5058484;28;20715;-76
2022/08/13 03:41:26;;;;;;;5.50;3.20;;;19.00;21.00;;;;;;5056186;28;20382;-78
2022/08/13 03:43:54;;;;;;;4.05;2.90;;;18.90;21.80;;;;;;5061439;28;20382;-77
2022/08/13 03:46:26;;;;;;;5.03;2.97;;;18.80;22.20;;;;;;5066749;28;20389;-78
2022/08/13 03:48:52;;;;;;;4.70;3.10;;;18.90;22.10;;;;;;5062412;28;20431;-79
2022/08/13 03:51:23;;;;;;;3.60;2.90;;;18.80;22.60;;;;;;5058364;28;20393;-79
2022/08/13 03:53:49;;;;;;;6.40;2.97;;;18.70;23.50;;;;;;5058711;28;20476;-79
2022/08/13 03:56:18;;;;;;;8.27;2.92;;;18.60;24.10;;;;;;5058649;28;20432;-79
2022/08/13 03:58:44;;;;;;;3.60;2.90;;;18.70;24.60;;;;;;5059131;28;20408;-79
2022/08/13 04:01:10;;;;;;;7.47;3.40;;;18.80;24.60;;;;;;5057661;28;20374;-78
2022/08/13 04:03:40;;;;;;;4.57;3.03;;;18.80;24.40;;;;;;5055763;28;20427;-78
2022/08/13 04:06:19;;;;;;;6.68;3.70;;;18.60;25.10;;;;;;5055353;28;20385;-78
2022/08/13 04:08:46;;;;;;;5.57;3.00;;;18.40;26.00;;;;;;5057230;28;20381;-78
2022/08/13 04:11:14;;;;;;;6.80;3.00;;;18.40;26.20;;;;;;5055011;28;20397;-79
2022/08/13 04:13:41;;;;;;;3.90;3.33;;;18.30;26.70;;;;;;5057569;28;20476;-78
2022/08/13 04:16:10;;;;;;;4.50;2.90;;;18.20;27.30;;;;;;5057063;28;20428;-78
2022/08/13 04:18:37;;;;;;;5.20;3.28;;;18.30;27.40;;;;;;5055881;28;20381;-77
2022/08/13 04:21:08;;;;;;;5.13;3.20;;;18.30;27.30;;;;;;5056492;28;20378;-79
2022/08/13 04:23:41;;;;;;;6.25;3.10;;;18.40;26.90;;;;;;5055966;28;20382;-77
2022/08/13 04:26:08;;;;;;;5.35;3.22;;;18.30;27.70;;;;;;5058303;28;20417;-78
2022/08/13 04:28:34;;;;;;;5.60;3.08;;;18.20;28.00;;;;;;5054691;28;20417;-77
2022/08/13 04:31:00;;;;;;;3.50;3.20;;;18.10;28.40;;;;;;5054820;28;20392;-77
2022/08/13 04:33:27;;;;;;;5.40;3.10;;;18.10;28.60;;;;;;5055615;28;20996;-78
2022/08/13 04:35:52;;;;;;;4.07;3.13;;;18.20;28.50;;;;;;5057712;28;20774;-79
2022/08/13 04:38:18;;;;;;;3.90;3.40;;;18.30;28.40;;;;;;5055790;28;20398;-78
2022/08/13 04:40:45;;;;;;;3.42;3.13;;;18.10;28.70;;;;;;5056401;28;20389;-78
2022/08/13 04:43:12;;;;;;;9.63;3.30;;;18.20;28.60;;;;;;5055531;28;20396;-78
2022/08/13 04:45:39;;;;;;;7.63;3.08;;;18.20;28.00;;;;;;5054502;28;20468;-78
2022/08/13 04:48:12;;;;;;;6.35;3.35;;;18.20;28.20;;;;;;5056260;28;20460;-78
2022/08/13 04:50:39;;;;;;;3.30;3.00;;;18.30;28.00;;;;;;5057548;28;20766;-79
2022/08/13 04:53:07;;;;;;;4.18;3.50;;;18.20;28.20;;;;;;5056827;28;20904;-78
2022/08/13 04:55:34;;;;;;;5.00;3.20;;;18.30;28.20;;;;;;5056109;28;20412;-78
2022/08/13 04:57:59;;;;;;;4.28;3.20;;;18.40;27.70;;;;;;5055984;28;20378;-78
2022/08/13 05:00:29;;;;;;;5.30;3.20;;;18.40;27.50;;;;;;5056641;28;20419;-79
2022/08/13 05:02:54;;;;;;;8.50;4.43;;;18.50;27.00;;;;;;5057123;28;20384;-79
2022/08/13 05:05:22;;;;;;;8.15;4.85;;;18.70;26.70;;;;;;5057001;28;20933;-78
2022/08/13 05:07:51;;;;;;;8.52;5.32;;;18.90;26.20;;;;;;5056943;28;20395;-79
2022/08/13 05:10:18;;;;;;;8.77;4.93;;;18.90;26.10;;;;;;5057794;28;20393;-78
2022/08/13 05:12:43;;;;;;;12.15;4.82;;;18.90;26.30;;;;;;5058093;28;20797;-78
2022/08/13 05:15:12;;;;;;;6.27;4.90;;;18.90;26.20;;;;;;5060245;28;20382;-78
2022/08/13 05:17:38;;;;;;;4.93;4.20;;;19.00;26.30;;;;;;5059953;28;20409;-79
2022/08/13 05:20:04;;;;;;;6.07;4.33;;;19.20;26.60;;;;;;5059316;28;20381;-78
2022/08/13 05:22:30;;;;;;;6.70;4.65;;;19.20;26.30;;;;;;5057889;28;20378;-78
2022/08/13 05:24:56;;;;;;;6.70;4.40;;;19.10;27.10;;;;;;5055491;28;20386;-78
2022/08/13 05:27:21;;;;;;;8.10;3.80;;;19.20;26.90;;;;;;5058851;28;20389;-77
2022/08/13 05:29:47;;;;;;;4.53;4.00;;;19.20;26.80;;;;;;5063796;28;20388;-77
2022/08/13 05:32:13;;;;;;;5.30;3.80;;;19.20;27.00;;;;;;5063847;28;20381;-78
2022/08/13 05:34:38;;;;;;;8.10;4.10;;;19.20;26.80;;;;;;5057208;28;20743;-79
2022/08/13 05:37:06;;;;;;;6.75;3.60;;;19.20;26.60;;;;;;5057448;28;20401;-78
2022/08/13 05:39:32;;;;;;;8.25;3.80;;;19.40;26.20;;;;;;5057194;28;20404;-78
2022/08/13 05:41:58;;;;;;;5.00;3.20;;;19.50;25.60;;;;;;5056753;28;20378;-79
2022/08/13 05:44:24;;;;;;;7.28;4.20;;;19.70;25.20;;;;;;5056721;28;20784;-78
2022/08/13 05:46:50;;;;;;;5.45;3.70;;;19.70;24.90;;;;;;5059565;28;20382;-78
2022/08/13 05:49:15;;;;;;;7.17;3.70;;;19.70;24.60;;;;;;5056936;28;20405;-78
2022/08/13 05:51:44;;;;;;;4.40;4.00;;;19.90;24.30;;;;;;5055926;28;20467;-79
2022/08/13 05:54:11;;;;;;;6.33;3.90;;;20.00;23.70;;;;;;5055708;28;20793;-76
2022/08/13 05:56:37;;;;;;;4.20;3.37;;;20.10;23.40;;;;;;5057744;28;20448;-77
2022/08/13 06:03:22;;;;;;;4.00;3.40;;;20.20;22.90;;;;;;5056236;28;20385;-78
2022/08/13 06:04:41;;;;;;;6.60;3.83;;;20.60;21.70;;;;;;5056174;28;20396;-78
2022/08/13 06:07:17;;;;;;;4.82;3.72;;;21.00;20.00;;;;;;5055735;28;20389;-78
2022/08/13 06:09:43;;;;;;;6.40;3.57;;;20.90;19.50;;;;;;5057709;28;20401;-79
2022/08/13 06:12:09;;;;;;;5.60;3.60;;;21.00;19.10;;;;;;5060937;28;20390;-79
2022/08/13 06:14:35;;;;;;;9.47;2.90;;;21.10;18.80;;;;;;5060365;28;20467;-78
2022/08/13 06:17:02;;;;;;;3.55;3.20;;;21.20;18.70;;;;;;5060754;28;20408;-79
2022/08/13 06:19:30;;;;;;;4.60;3.40;;;21.30;18.40;;;;;;5064268;28;20475;-77
2022/08/13 06:22:02;;;;;;;7.13;3.50;;;21.50;18.50;;;;;;5064399;28;20900;-79
2022/08/13 06:24:37;;;;;;;3.95;3.55;;;21.60;18.20;;;;;;5058068;28;20862;-77
2022/08/13 06:27:04;;;;;;;6.63;4.00;;;21.70;17.40;;;;;;5058039;28;20919;-77
2022/08/13 06:29:33;;;;;;;4.80;3.40;;;21.90;17.40;;;;;;5063507;28;20393;-76
2022/08/13 06:32:00;;;;;;;5.35;3.70;;;22.10;16.50;;;;;;5062049;28;20397;-77
2022/08/13 06:34:26;;;;;;;5.00;3.10;;;22.20;16.40;;;;;;5061495;28;20403;-78
2022/08/13 06:36:51;;;;;;;6.37;3.50;;;22.20;16.20;;;;;;5058436;28;20405;-77
2022/08/13 06:39:18;;;;;;;8.10;4.47;;;22.20;16.30;;;;;;5057969;28;20416;-78
2022/08/13 06:41:45;;;;;;;5.70;3.80;;;22.70;15.70;;;;;;5059900;28;20424;-80
2022/08/13 06:44:11;;;;;;;3.92;3.50;;;22.60;15.40;;;;;;5057753;28;20377;-79
2022/08/13 06:46:38;;;;;;;4.70;3.40;;;22.60;14.50;;;;;;5056846;28;20428;-78
2022/08/13 06:49:04;;;;;;;7.50;3.53;;;22.60;14.30;;;;;;5057663;28;20381;-79
2022/08/13 06:51:31;;;;;;;6.05;3.30;;;22.80;14.10;;;;;;5057688;28;20392;-78
2022/08/13 06:53:57;;;;;;;5.80;3.38;;;22.80;13.90;;;;;;5054587;28;20391;-76
2022/08/13 06:56:25;;;;;;;4.13;3.17;;;22.90;13.70;;;;;;5054361;28;20409;-78
2022/08/13 06:58:52;;;;;;;8.00;3.50;;;23.00;13.80;;;;;;5052685;28;20490;-77
2022/08/13 07:01:20;;;;;;;3.80;3.30;;;23.10;13.80;;;;;;5053913;28;20555;-77
2022/08/13 07:03:46;;;;;;;5.15;3.78;;;23.20;13.50;;;;;;5054209;28;20405;-78
2022/08/13 07:06:22;;;;;;;4.60;3.42;;;23.40;13.40;;;;;;5053528;28;20385;-77
2022/08/13 07:08:48;;;;;;;4.55;3.42;;;23.50;13.10;;;;;;5053624;28;20377;-78
2022/08/13 07:11:23;;;;;;;9.00;3.50;;;23.60;12.90;;;;;;5053490;28;20997;-77
2022/08/13 07:13:51;;;;;;;6.70;3.00;;;23.70;12.80;;;;;;5053300;28;20893;-77
2022/08/13 07:16:18;;;;;;;6.30;3.03;;;23.80;13.00;;;;;;5051653;28;20961;-77
2022/08/13 07:18:46;;;;;;;3.28;2.97;;;23.80;12.30;;;;;;5052938;28;20439;-76
2022/08/13 07:21:13;;;;;;;6.18;3.60;;;24.00;11.90;;;;;;5052272;28;20380;-76
2022/08/13 07:23:40;;;;;;;7.03;2.97;;;24.10;11.70;;;;;;5053600;28;20384;-78
2022/08/13 07:26:08;;;;;;;4.90;3.03;;;24.30;12.00;;;;;;5053004;28;20390;-78
2022/08/13 07:28:34;;;;;;;3.20;3.00;;;24.40;11.40;;;;;;5053275;28;20869;-76
2022/08/13 07:31:02;;;;;;;5.07;2.78;;;24.40;11.00;;;;;;5052902;28;20476;-77
2022/08/13 07:33:27;;;;;;;3.63;2.60;;;24.60;10.90;;;;;;5056656;28;20439;-78
2022/08/13 07:35:53;;;;;;;4.77;2.50;;;24.70;11.30;;;;;;5052815;28;20902;-78
2022/08/13 07:38:19;;;;;;;7.70;3.00;;;24.80;10.70;;;;;;5052767;28;20386;-78
2022/08/13 07:40:52;;;;;;;6.40;2.90;;;24.90;9.90;;;;;;5053045;28;20908;-78
2022/08/13 07:43:22;;;;;;;3.72;2.65;;;24.90;10.10;;;;;;5053381;28;20390;-78
2022/08/13 07:46:10;;;;;;;4.93;2.70;;;25.00;10.30;;;;;;5052721;28;20385;-78
2022/08/13 07:48:37;;;;;;;4.00;2.40;;;25.20;8.90;;;;;;5053444;28;20515;-78
2022/08/13 07:51:06;;;;;;;3.00;2.70;;;25.20;9.10;;;;;;5054433;28;20386;-77
2022/08/13 07:53:34;;;;;;;4.60;2.50;;;25.20;9.20;;;;;;5055922;28;20480;-77
2022/08/13 07:56:01;;;;;;;5.43;2.70;;;25.30;9.10;;;;;;5054290;28;20770;-78
2022/08/13 07:58:30;;;;;;;2.85;2.60;;;25.40;8.80;;;;;;5053438;28;20436;-77
2022/08/13 08:00:59;;;;;;;4.50;2.80;;;25.40;9.10;;;;;;5035612;28;20480;-78
2022/08/13 08:03:30;;;;;;;4.30;2.60;;;25.50;8.70;;;;;;5053054;28;20381;-77
2022/08/13 08:05:57;;;;;;;3.40;2.88;;;25.60;8.20;;;;;;5053352;28;20895;-78
2022/08/13 08:08:24;;;;;;;3.15;2.85;;;25.70;7.60;;;;;;5053457;28;20389;-78
2022/08/13 08:10:51;;;;;;;7.10;2.33;;;25.70;8.00;;;;;;5066966;23;20421;-74
2022/08/13 08:13:17;;;;;;;2.95;2.63;;;25.80;7.90;;;;;;5054878;28;20467;-76
2022/08/13 08:15:43;;;;;;;3.78;3.00;;;26.00;7.60;;;;;;5055833;28;20405;-76
2022/08/13 08:18:09;;;;;;;5.70;2.50;;;26.00;7.00;;;;;;5055582;28;20563;-74
2022/08/13 08:20:34;;;;;;;3.60;2.30;;;26.10;6.90;;;;;;5051834;28;20395;-75
2022/08/13 08:23:00;;;;;;;2.40;2.20;;;26.10;6.70;;;;;;5035113;28;20383;-75
2022/08/13 08:25:26;;;;;;;3.90;2.35;;;26.20;6.70;;;;;;5033829;28;20387;-76
2022/08/13 08:27:51;;;;;;;2.43;2.23;;;26.20;6.00;;;;;;5032838;28;20394;-76
2022/08/13 08:30:19;;;;;;;5.53;2.50;;;26.30;6.60;;;;;;5032763;28;20394;-77
2022/08/13 08:32:51;;;;;;;4.03;2.38;;;26.40;6.80;;;;;;5028082;28;20428;-77
2022/08/13 08:35:17;;;;;;;3.60;2.13;;;26.70;6.30;;;;;;5030375;28;22366;-76
2022/08/13 08:43:14;;;;;;;2.25;2.03;;;26.80;5.20;;;;;;5051263;28;20385;-76
2022/08/13 08:45:42;;;;;;;3.60;2.00;;;26.90;5.10;;;;;;5031573;28;20395;-76
2022/08/13 08:48:08;;;;;;;5.00;2.60;;;26.90;5.50;;;;;;5030194;28;20418;-75
2022/08/13 08:50:34;;;;;;;4.00;1.90;;;27.20;4.80;;;;;;5034051;28;20411;-76
2022/08/13 08:53:19;;;;;;;6.03;3.50;;;27.30;4.00;;;;;;5034429;28;20379;-75
2022/08/13 08:55:46;;;;;;;3.78;2.10;;;27.30;4.20;;;;;;5023188;28;20412;-76
2022/08/13 08:58:12;;;;;;;4.82;2.00;;;27.30;4.30;;;;;;5022699;28;20418;-76
2022/08/13 09:00:40;;;;;;;2.83;2.60;;;27.30;4.10;;;;;;5030739;28;20406;-75
2022/08/13 09:03:07;;;;;;;4.30;2.20;;;27.60;4.10;;;;;;5030878;28;20383;-76
2022/08/13 09:05:33;;;;;;;5.78;2.50;;;27.60;4.10;;;;;;5032071;28;20387;-76
2022/08/13 09:08:01;;;;;;;4.50;2.00;;;27.70;4.20;;;;;;5046687;28;20422;-75
2022/08/13 09:10:32;;;;;;;2.00;1.90;;;27.80;3.40;;;;;;5017567;28;20409;-74
2022/08/13 09:13:00;;;;;;;2.50;2.28;;;27.80;2.80;;;;;;5022630;28;20390;-75
2022/08/13 09:15:26;;;;;;;8.50;5.57;;;27.90;4.30;;;;;;5030510;28;20417;-75
2022/08/13 09:17:53;;;;;;;6.25;5.28;;;27.80;3.00;;;;;;5030390;28;20394;-74
2022/08/13 09:20:22;;;;;;;4.20;2.22;;;27.80;3.30;;;;;;5028610;28;20406;-72
2022/08/13 09:23:00;;;;;;;3.10;2.05;;;28.10;3.10;;;;;;5015921;28;20403;-75
2022/08/13 09:25:26;;;;;;;4.97;2.60;;;28.20;2.50;;;;;;5040623;28;20395;-72
2022/08/13 09:27:53;;;;;;;4.20;1.90;;;28.30;2.40;;;;;;5045287;28;20398;-72
2022/08/13 09:30:19;;;;;;;2.13;1.83;;;28.40;2.00;;;;;;5042935;28;20407;-74
2022/08/13 09:32:46;;;;;;;2.70;2.50;;;28.30;2.00;;;;;;5029012;28;20387;-74
2022/08/13 09:35:12;;;;;;;6.43;2.38;;;28.20;2.30;;;;;;5029178;28;20398;-73
2022/08/13 09:37:39;;;;;;;3.50;2.50;;;28.20;2.40;;;;;;5029133;28;20387;-75
2022/08/13 09:40:11;;;;;;;3.20;2.30;;;28.20;2.60;;;;;;5028838;28;20923;-73
2022/08/13 09:42:57;;;;;;;2.17;1.70;;;28.20;2.70;;;;;;5043640;28;20386;-72
2022/08/13 09:45:27;;;;;;;5.60;2.15;;;28.40;1.50;;;;;;5028814;28;20391;-73
2022/08/13 09:47:57;;;;;;;12.27;11.05;;;28.40;2.00;;;;;;5028919;28;20843;-74
2022/08/13 09:50:25;;;;;;;7.25;4.65;;;28.50;2.30;;;;;;5039720;28;20449;-76
2022/08/13 09:52:52;;;;;;;3.50;3.13;;;28.60;2.00;;;;;;5048294;28;20424;-73
2022/08/13 09:55:22;;;;;;;4.10;2.30;;;28.60;1.70;;;;;;5047253;28;20428;-74
2022/08/13 09:57:59;;;;;;;2.80;2.00;;;28.80;1.70;;;;;;5047955;28;20399;-74
2022/08/13 10:00:27;;;;;;;3.80;2.40;;;28.80;1.10;;;;;;5041449;28;20416;-74
2022/08/13 10:02:57;;;;;;;3.40;2.30;;;28.80;1.80;;;;;;5046409;28;20404;-74
2022/08/13 10:05:28;;;;;;;4.35;2.20;;;28.80;1.00;;;;;;5035121;28;20878;-74
2022/08/13 10:07:53;;;;;;;3.95;2.80;;;28.80;1.00;;;;;;5033665;28;20919;-73
2022/08/13 10:10:20;;;;;;;2.83;2.40;;;28.70;1.00;;;;;;5034888;28;20402;-73
2022/08/13 10:12:46;;;;;;;4.65;2.70;;;28.70;1.00;;;;;;5032457;28;20393;-73
2022/08/13 10:15:12;;;;;;;13.05;11.45;;;28.80;1.10;;;;;;5018371;28;20396;-74
2022/08/13 10:17:48;;;;;;;16.50;11.73;;;29.00;2.60;;;;;;5009012;28;20389;-74
2022/08/13 10:20:29;;;;;;;11.10;7.40;;;29.10;2.10;;;;;;5019425;28;20972;-74
2022/08/13 10:22:55;;;;;;;4.50;3.22;;;29.20;1.10;;;;;;5031753;28;20777;-74
2022/08/13 10:25:23;;;;;;;7.70;3.20;;;29.20;1.00;;;;;;5048882;28;20754;-75
2022/08/13 10:27:49;;;;;;;4.13;2.50;;;29.20;1.00;;;;;;5042742;28;20406;-73
2022/08/13 10:30:17;;;;;;;2.80;2.40;;;29.40;1.00;;;;;;5026593;28;20399;-72
2022/08/13 10:32:42;;;;;;;4.30;2.30;;;29.40;1.00;;;;;;5047761;28;20875;-73
2022/08/13 10:35:09;;;;;;;4.28;2.70;;;29.40;1.00;;;;;;5039457;28;20436;-73
2022/08/13 10:37:42;;;;;;;3.75;2.50;;;29.50;1.00;;;;;;5040046;28;20426;-73
2022/08/13 10:40:08;;;;;;;2.90;2.70;;;29.50;1.00;;;;;;5016887;28;20389;-72
2022/08/13 10:42:34;;;;;;;3.55;2.55;;;29.60;1.00;;;;;;5025894;28;20404;-74
2022/08/13 10:44:59;;;;;;;7.00;4.45;;;29.50;1.00;;;;;;5017220;28;20397;-72
2022/08/13 10:47:25;;;;;;;5.00;4.50;;;29.60;1.00;;;;;;5009674;28;20451;-72
2022/08/13 10:49:51;;;;;;;4.93;3.33;;;29.70;1.00;;;;;;5014205;28;20407;-74
2022/08/13 10:52:26;;;;;;;5.47;4.13;;;29.90;1.00;;;;;;5022816;28;20405;-74
2022/08/13 10:54:53;;;;;;;5.95;2.33;;;29.90;1.00;;;;;;5048436;28;20387;-73
2022/08/13 10:57:18;;;;;;;3.63;2.35;;;30.00;1.00;;;;;;5065933;28;20424;-73
2022/08/13 10:59:45;;;;;;;2.45;2.20;;;30.00;1.00;;;;;;5068901;28;20389;-74
2022/08/13 11:02:11;;;;;;;2.20;2.00;;;30.20;1.00;;;;;;5059061;28;20575;-75
2022/08/13 11:04:37;;;;;;;9.20;5.65;;;30.10;1.00;;;;;;5050388;28;20393;-74
2022/08/13 11:07:11;;;;;;;2.30;2.10;;;30.10;1.00;;;;;;5051425;28;20386;-74
2022/08/13 11:09:37;;;;;;;17.00;11.80;;;30.20;1.00;;;;;;5051326;28;20389;-74
2022/08/13 11:12:05;;;;;;;9.80;8.80;;;30.20;1.00;;;;;;5025966;28;20396;-74
2022/08/13 11:14:32;;;;;;;5.20;4.70;;;30.10;1.00;;;;;;5020344;28;20392;-74
2022/08/13 11:16:58;;;;;;;8.03;7.13;;;30.10;1.00;;;;;;5029346;28;20763;-74
2022/08/13 11:19:29;;;;;;;4.30;2.60;;;30.10;1.00;;;;;;5032726;28;20399;-75
2022/08/13 11:21:55;;;;;;;4.00;2.35;;;30.30;1.00;;;;;;5012987;28;20389;-75
2022/08/13 11:24:21;;;;;;;5.57;2.20;;;30.30;1.00;;;;;;5012552;28;20820;-75
2022/08/13 11:26:47;;;;;;;2.42;2.00;;;30.40;1.00;;;;;;5024357;28;20486;-72
2022/08/13 11:29:13;;;;;;;2.80;2.40;;;30.40;1.00;;;;;;5032747;28;20426;-74
2022/08/13 11:31:39;;;;;;;8.17;3.67;;;30.40;1.00;;;;;;5027169;28;20411;-74
2022/08/13 11:34:04;;;;;;;6.00;3.40;;;30.50;1.00;;;;;;5031177;28;20465;-74
2022/08/13 11:36:30;;;;;;;6.43;2.40;;;30.60;1.00;;;;;;5024463;28;20495;-73
2022/08/13 11:38:56;;;;;;;10.50;3.50;;;30.60;1.00;;;;;;5024072;28;20401;-74
2022/08/13 11:41:22;;;;;;;2.42;1.92;;;30.60;1.00;;;;;;5024578;28;20459;-73
2022/08/13 11:43:51;;;;;;;2.40;2.10;;;30.50;1.00;;;;;;5011463;28;20389;-73
2022/08/13 11:46:17;;;;;;;4.60;1.80;;;30.50;1.00;;;;;;5012439;28;20454;-73
2022/08/13 11:48:43;;;;;;;4.10;1.95;;;30.40;1.00;;;;;;5022746;28;20402;-74
2022/08/13 11:51:09;;;;;;;3.60;1.98;;;30.60;1.00;;;;;;5028299;28;20399;-74
2022/08/13 11:53:35;;;;;;;2.50;2.30;;;30.70;1.00;;;;;;5033059;28;20407;-74
2022/08/13 11:56:00;;;;;;;3.25;2.95;;;30.70;1.00;;;;;;5031255;28;20416;-73
2022/08/13 11:58:26;;;;;;;3.30;3.00;;;30.80;1.00;;;;;;5025318;28;20411;-72
2022/08/13 12:00:54;;;;;;;6.88;3.38;;;31.00;1.00;;;;;;5018371;28;20917;-73
2022/08/13 12:03:20;;;;;;;3.83;2.00;;;31.10;1.00;;;;;;5017765;28;20385;-74
2022/08/13 12:05:45;;;;;;;5.25;3.50;;;31.30;1.00;;;;;;5016106;28;20392;-72
2022/08/13 12:08:16;;;;;;;2.53;2.00;;;31.40;1.00;;;;;;5021160;28;20387;-72
2022/08/13 12:10:42;;;;;;;7.68;2.47;;;31.10;1.00;;;;;;5032313;28;20434;-73
2022/08/13 12:13:08;;;;;;;3.90;2.10;;;31.10;1.00;;;;;;5031721;28;20406;-74
2022/08/13 12:15:33;;;;;;;2.55;2.10;;;31.00;1.00;;;;;;5032358;28;20415;-73
2022/08/13 12:17:59;;;;;;;2.40;2.20;;;30.90;1.00;;;;;;5025392;28;20405;-73
2022/08/13 12:20:25;;;;;;;3.83;2.30;;;30.70;1.00;;;;;;5012245;28;20455;-74
2022/08/13 12:22:55;;;;;;;2.13;2.03;;;30.70;1.00;;;;;;5011518;28;20392;-73
2022/08/13 12:25:22;;;;;;;2.30;2.00;;;30.80;1.00;;;;;;5017677;28;20384;-72
2022/08/13 12:27:48;;;;;;;3.20;1.90;;;30.70;1.00;;;;;;5036226;28;20815;-73
2022/08/13 12:30:13;;;;;;;5.78;2.80;;;30.80;1.00;;;;;;5041302;28;20402;-73
2022/08/13 12:32:39;;;;;;;5.77;2.70;;;31.00;1.00;;;;;;5031944;28;20943;-72
2022/08/13 12:35:05;;;;;;;5.50;3.38;;;31.30;1.00;;;;;;5023149;28;20400;-74
2022/08/13 12:37:31;;;;;;;6.10;4.13;;;31.50;1.00;;;;;;5026720;28;20411;-73
2022/08/13 12:39:57;;;;;;;4.28;3.70;;;31.70;1.00;;;;;;5026500;28;20608;-73
2022/08/13 12:42:25;;;;;;;2.92;2.00;;;31.80;1.00;;;;;;5023668;28;20525;-73
2022/08/13 12:44:50;;;;;;;2.10;1.90;;;31.70;1.00;;;;;;5026524;28;20403;-73
2022/08/13 12:47:16;;;;;;;4.20;2.30;;;31.90;1.00;;;;;;5031953;28;20379;-73
2022/08/13 12:49:41;;;;;;;2.07;1.97;;;31.90;1.00;;;;;;5031203;28;20427;-73
2022/08/13 12:52:07;;;;;;;3.85;2.03;;;31.90;1.00;;;;;;5027030;28;20900;-73
2022/08/13 12:54:33;;;;;;;3.10;2.40;;;32.10;1.00;;;;;;5044590;28;20431;-73
2022/08/13 12:56:59;;;;;;;2.80;1.95;;;32.20;1.00;;;;;;5051385;28;20401;-73
2022/08/13 12:59:24;;;;;;;2.53;2.30;;;32.10;1.00;;;;;;5051222;28;20464;-73
2022/08/13 13:01:52;;;;;;;2.00;1.90;;;31.80;1.00;;;;;;5019506;28;20424;-74
2022/08/13 13:04:22;;;;;;;4.18;2.50;;;31.50;1.00;;;;;;5026982;28;20622;-74
2022/08/13 13:06:51;;;;;;;3.75;2.38;;;31.50;1.00;;;;;;5015612;28;20431;-74
2022/08/13 13:09:17;;;;;;;9.20;5.57;;;31.60;1.00;;;;;;5032464;28;20390;-74